sensor_id;sensor_type;location;lat;lon;timestamp;temperature;humidity
3053;DHT22;1536;51.098;6.414;2023-09-07T00:01:13;20.40;99.90
3053;DHT22;1536;51.098;6.414;2023-09-07T00:03:41;20.40;99.90
3053;DHT22;1536;51.098;6.414;2023-09-07T00:06:08;20.40;99.90
3053;DHT22;1536;51.098;6.414;2023-09-07T00:08:36;20.40;99.90
3053;DHT22;1536;51.098;6.414;2023-09-07T00:11:03;20.40;99.90
3053;DHT22;1536;51.098;6.414;2023-09-07T00:13:30;20.40;99.90
3053;DHT22;1536;51.098;6.414;2023-09-07T00:15:58;20.30;99.90
3053;DHT22;1536;51.098;6.414;2023-09-07T00:18:26;20.30;99.90
3053;DHT22;1536;51.098;6.414;2023-09-07T00:20:53;20.30;99.90
3053;DHT22;1536;51.098;6.414;2023-09-07T00:23:20;20.20;99.90
3053;DHT22;1536;51.098;6.414;2023-09-07T00:25:48;20.20;99.90
3053;DHT22;1536;51.098;6.414;2023-09-07T00:28:15;20.10;99.90
3053;DHT22;1536;51.098;6.414;2023-09-07T00:30:42;20.10;99.90
3053;DHT22;1536;51.098;6.414;2023-09-07T00:33:09;20.10;99.90
3053;DHT22;1536;51.098;6.414;2023-09-07T00:35:36;20.10;99.90
3053;DHT22;1536;51.098;6.414;2023-09-07T00:38:03;20.10;99.90
3053;DHT22;1536;51.098;6.414;2023-09-07T00:40:30;20.10;99.90
3053;DHT22;1536;51.098;6.414;2023-09-07T00:42:59;20.10;99.90
3053;DHT22;1536;51.098;6.414;2023-09-07T00:45:26;20.10;99.90
3053;DHT22;1536;51.098;6.414;2023-09-07T00:47:52;20.10;99.90
3053;DHT22;1536;51.098;6.414;2023-09-07T00:50:20;20.10;99.90
3053;DHT22;1536;51.098;6.414;2023-09-07T00:52:47;20.20;99.90
3053;DHT22;1536;51.098;6.414;2023-09-07T00:55:14;20.20;99.90
3053;DHT22;1536;51.098;6.414;2023-09-07T00:57:42;20.20;99.90
3053;DHT22;1536;51.098;6.414;2023-09-07T01:00:11;20.30;99.90
3053;DHT22;1536;51.098;6.414;2023-09-07T01:02:39;20.30;99.90
3053;DHT22;1536;51.098;6.414;2023-09-07T01:05:08;20.30;99.90
3053;DHT22;1536;51.098;6.414;2023-09-07T01:07:37;20.30;99.90
3053;DHT22;1536;51.098;6.414;2023-09-07T01:10:05;20.40;99.90
3053;DHT22;1536;51.098;6.414;2023-09-07T01:12:33;20.40;99.90
3053;DHT22;1536;51.098;6.414;2023-09-07T01:14:59;20.40;99.90
3053;DHT22;1536;51.098;6.414;2023-09-07T01:17:32;20.40;99.90
3053;DHT22;1536;51.098;6.414;2023-09-07T01:20:04;20.50;99.90
3053;DHT22;1536;51.098;6.414;2023-09-07T01:22:36;20.50;99.90
3053;DHT22;1536;51.098;6.414;2023-09-07T01:25:06;20.50;99.90
3053;DHT22;1536;51.098;6.414;2023-09-07T01:27:33;20.50;99.90
3053;DHT22;1536;51.098;6.414;2023-09-07T01:30:00;20.50;99.90
3053;DHT22;1536;51.098;6.414;2023-09-07T01:32:28;20.50;99.90
3053;DHT22;1536;51.098;6.414;2023-09-07T01:34:55;20.50;99.90
3053;DHT22;1536;51.098;6.414;2023-09-07T01:37:23;20.60;99.90
3053;DHT22;1536;51.098;6.414;2023-09-07T01:39:52;20.60;99.90
3053;DHT22;1536;51.098;6.414;2023-09-07T01:42:19;20.70;99.90
3053;DHT22;1536;51.098;6.414;2023-09-07T01:44:47;20.70;99.90
3053;DHT22;1536;51.098;6.414;2023-09-07T01:47:14;20.70;99.90
3053;DHT22;1536;51.098;6.414;2023-09-07T01:49:40;20.70;99.90
3053;DHT22;1536;51.098;6.414;2023-09-07T01:52:07;20.70;99.90
3053;DHT22;1536;51.098;6.414;2023-09-07T01:54:35;20.70;99.90
3053;DHT22;1536;51.098;6.414;2023-09-07T01:57:04;20.70;99.90
3053;DHT22;1536;51.098;6.414;2023-09-07T01:59:31;20.70;99.90
3053;DHT22;1536;51.098;6.414;2023-09-07T02:01:57;20.70;99.90
3053;DHT22;1536;51.098;6.414;2023-09-07T02:04:25;20.70;99.90
3053;DHT22;1536;51.098;6.414;2023-09-07T02:06:52;20.80;99.90
3053;DHT22;1536;51.098;6.414;2023-09-07T02:09:19;20.80;99.90
3053;DHT22;1536;51.098;6.414;2023-09-07T02:11:45;20.80;99.90
3053;DHT22;1536;51.098;6.414;2023-09-07T02:14:14;20.80;99.90
3053;DHT22;1536;51.098;6.414;2023-09-07T02:16:40;20.80;99.90
3053;DHT22;1536;51.098;6.414;2023-09-07T02:19:08;20.90;99.90
3053;DHT22;1536;51.098;6.414;2023-09-07T02:21:34;20.90;99.90
3053;DHT22;1536;51.098;6.414;2023-09-07T02:24:01;20.90;99.90
3053;DHT22;1536;51.098;6.414;2023-09-07T02:26:28;20.90;99.90
3053;DHT22;1536;51.098;6.414;2023-09-07T02:28:55;20.90;99.90
3053;DHT22;1536;51.098;6.414;2023-09-07T02:31:23;20.90;99.90
3053;DHT22;1536;51.098;6.414;2023-09-07T02:33:50;20.90;99.90
3053;DHT22;1536;51.098;6.414;2023-09-07T02:36:17;20.90;99.90
3053;DHT22;1536;51.098;6.414;2023-09-07T02:38:44;20.90;99.90
3053;DHT22;1536;51.098;6.414;2023-09-07T02:41:11;20.90;99.90
3053;DHT22;1536;51.098;6.414;2023-09-07T02:43:38;20.90;99.90
3053;DHT22;1536;51.098;6.414;2023-09-07T02:46:04;20.90;99.90
3053;DHT22;1536;51.098;6.414;2023-09-07T02:48:32;20.90;99.90
3053;DHT22;1536;51.098;6.414;2023-09-07T02:50:59;20.90;99.90
3053;DHT22;1536;51.098;6.414;2023-09-07T02:53:26;20.90;99.90
3053;DHT22;1536;51.098;6.414;2023-09-07T02:55:53;20.90;99.90
3053;DHT22;1536;51.098;6.414;2023-09-07T02:58:19;20.90;99.90
3053;DHT22;1536;51.098;6.414;2023-09-07T03:00:46;20.80;99.90
3053;DHT22;1536;51.098;6.414;2023-09-07T03:03:13;20.80;99.90
3053;DHT22;1536;51.098;6.414;2023-09-07T03:05:43;20.80;99.90
3053;DHT22;1536;51.098;6.414;2023-09-07T03:08:10;20.80;99.90
3053;DHT22;1536;51.098;6.414;2023-09-07T03:10:37;20.80;99.90
3053;DHT22;1536;51.098;6.414;2023-09-07T03:13:05;20.80;99.90
3053;DHT22;1536;51.098;6.414;2023-09-07T03:15:31;20.80;99.90
3053;DHT22;1536;51.098;6.414;2023-09-07T03:17:59;20.80;99.90
3053;DHT22;1536;51.098;6.414;2023-09-07T03:20:26;20.80;99.90
3053;DHT22;1536;51.098;6.414;2023-09-07T03:22:54;20.80;99.90
3053;DHT22;1536;51.098;6.414;2023-09-07T03:25:25;20.80;99.90
3053;DHT22;1536;51.098;6.414;2023-09-07T03:27:52;20.80;99.90
3053;DHT22;1536;51.098;6.414;2023-09-07T03:30:19;20.70;99.90
3053;DHT22;1536;51.098;6.414;2023-09-07T03:32:45;20.70;99.90
3053;DHT22;1536;51.098;6.414;2023-09-07T03:35:12;20.80;99.90
3053;DHT22;1536;51.098;6.414;2023-09-07T03:37:43;20.70;99.90
3053;DHT22;1536;51.098;6.414;2023-09-07T03:40:11;20.70;99.90
3053;DHT22;1536;51.098;6.414;2023-09-07T03:42:38;20.70;99.90
3053;DHT22;1536;51.098;6.414;2023-09-07T03:45:06;20.70;99.90
3053;DHT22;1536;51.098;6.414;2023-09-07T03:47:33;20.70;99.90
3053;DHT22;1536;51.098;6.414;2023-09-07T03:50:00;20.70;99.90
3053;DHT22;1536;51.098;6.414;2023-09-07T03:52:27;20.70;99.90
3053;DHT22;1536;51.098;6.414;2023-09-07T03:54:54;20.60;99.90
3053;DHT22;1536;51.098;6.414;2023-09-07T03:57:23;20.70;99.90
3053;DHT22;1536;51.098;6.414;2023-09-07T03:59:50;20.60;99.90
3053;DHT22;1536;51.098;6.414;2023-09-07T04:02:17;20.60;99.90
3053;DHT22;1536;51.098;6.414;2023-09-07T04:04:48;20.60;99.90
3053;DHT22;1536;51.098;6.414;2023-09-07T04:07:15;20.60;99.90
3053;DHT22;1536;51.098;6.414;2023-09-07T04:09:42;20.60;99.90
3053;DHT22;1536;51.098;6.414;2023-09-07T04:12:10;20.50;99.90
3053;DHT22;1536;51.098;6.414;2023-09-07T04:14:38;20.50;99.90
3053;DHT22;1536;51.098;6.414;2023-09-07T04:17:06;20.60;99.90
3053;DHT22;1536;51.098;6.414;2023-09-07T04:19:32;20.60;99.90
3053;DHT22;1536;51.098;6.414;2023-09-07T04:22:00;20.50;99.90
3053;DHT22;1536;51.098;6.414;2023-09-07T04:24:27;20.50;99.90
3053;DHT22;1536;51.098;6.414;2023-09-07T04:26:58;20.50;99.90
3053;DHT22;1536;51.098;6.414;2023-09-07T04:29:25;20.60;99.90
3053;DHT22;1536;51.098;6.414;2023-09-07T04:31:54;20.60;99.90
3053;DHT22;1536;51.098;6.414;2023-09-07T04:34:21;20.60;99.90
3053;DHT22;1536;51.098;6.414;2023-09-07T04:36:47;20.60;99.90
3053;DHT22;1536;51.098;6.414;2023-09-07T04:39:14;20.50;99.90
3053;DHT22;1536;51.098;6.414;2023-09-07T04:41:41;20.50;99.90
3053;DHT22;1536;51.098;6.414;2023-09-07T04:44:08;20.50;99.90
3053;DHT22;1536;51.098;6.414;2023-09-07T04:46:34;20.60;99.90
3053;DHT22;1536;51.098;6.414;2023-09-07T04:49:03;20.50;99.90
3053;DHT22;1536;51.098;6.414;2023-09-07T04:51:29;20.50;99.90
3053;DHT22;1536;51.098;6.414;2023-09-07T04:53:57;20.50;99.90
3053;DHT22;1536;51.098;6.414;2023-09-07T04:56:23;20.50;99.90
3053;DHT22;1536;51.098;6.414;2023-09-07T04:58:51;20.50;99.90
3053;DHT22;1536;51.098;6.414;2023-09-07T05:01:18;20.40;99.90
3053;DHT22;1536;51.098;6.414;2023-09-07T05:03:44;20.50;99.90
3053;DHT22;1536;51.098;6.414;2023-09-07T05:06:13;20.40;99.90
3053;DHT22;1536;51.098;6.414;2023-09-07T05:08:40;20.50;99.90
3053;DHT22;1536;51.098;6.414;2023-09-07T05:11:07;20.40;99.90
3053;DHT22;1536;51.098;6.414;2023-09-07T05:13:34;20.40;99.90
3053;DHT22;1536;51.098;6.414;2023-09-07T05:16:01;20.50;99.90
3053;DHT22;1536;51.098;6.414;2023-09-07T05:18:27;20.40;99.90
3053;DHT22;1536;51.098;6.414;2023-09-07T05:20:55;20.40;99.90
3053;DHT22;1536;51.098;6.414;2023-09-07T05:23:24;20.40;99.90
3053;DHT22;1536;51.098;6.414;2023-09-07T05:25:53;20.40;99.90
3053;DHT22;1536;51.098;6.414;2023-09-07T05:28:21;20.40;99.90
3053;DHT22;1536;51.098;6.414;2023-09-07T05:30:48;20.50;99.90
3053;DHT22;1536;51.098;6.414;2023-09-07T05:33:16;20.50;99.90
3053;DHT22;1536;51.098;6.414;2023-09-07T05:35:44;20.50;99.90
3053;DHT22;1536;51.098;6.414;2023-09-07T05:38:12;20.50;99.90
3053;DHT22;1536;51.098;6.414;2023-09-07T05:40:42;20.50;99.90
3053;DHT22;1536;51.098;6.414;2023-09-07T05:43:09;20.50;99.90
3053;DHT22;1536;51.098;6.414;2023-09-07T05:45:38;20.50;99.90
3053;DHT22;1536;51.098;6.414;2023-09-07T05:48:05;20.50;99.90
3053;DHT22;1536;51.098;6.414;2023-09-07T05:50:34;20.50;99.90
3053;DHT22;1536;51.098;6.414;2023-09-07T05:53:01;20.50;99.90
3053;DHT22;1536;51.098;6.414;2023-09-07T05:55:28;20.50;99.90
3053;DHT22;1536;51.098;6.414;2023-09-07T05:57:57;20.50;99.90
3053;DHT22;1536;51.098;6.414;2023-09-07T06:00:24;20.50;99.90
3053;DHT22;1536;51.098;6.414;2023-09-07T06:02:51;20.50;99.90
3053;DHT22;1536;51.098;6.414;2023-09-07T06:05:18;20.50;99.90
3053;DHT22;1536;51.098;6.414;2023-09-07T06:07:45;20.50;99.90
3053;DHT22;1536;51.098;6.414;2023-09-07T06:10:13;20.50;99.90
3053;DHT22;1536;51.098;6.414;2023-09-07T06:12:40;20.60;99.90
3053;DHT22;1536;51.098;6.414;2023-09-07T06:15:08;20.60;99.90
3053;DHT22;1536;51.098;6.414;2023-09-07T06:17:36;20.60;99.90
3053;DHT22;1536;51.098;6.414;2023-09-07T06:20:03;20.60;99.90
3053;DHT22;1536;51.098;6.414;2023-09-07T06:22:31;20.60;99.90
3053;DHT22;1536;51.098;6.414;2023-09-07T06:24:58;20.70;99.90
3053;DHT22;1536;51.098;6.414;2023-09-07T06:27:25;20.70;99.90
3053;DHT22;1536;51.098;6.414;2023-09-07T06:29:51;20.70;99.90
3053;DHT22;1536;51.098;6.414;2023-09-07T06:32:20;20.70;99.90
3053;DHT22;1536;51.098;6.414;2023-09-07T06:34:47;20.80;99.90
3053;DHT22;1536;51.098;6.414;2023-09-07T06:37:13;20.80;99.90
3053;DHT22;1536;51.098;6.414;2023-09-07T06:39:40;20.80;99.90
3053;DHT22;1536;51.098;6.414;2023-09-07T06:42:09;20.90;99.90
3053;DHT22;1536;51.098;6.414;2023-09-07T06:44:36;20.90;99.90
3053;DHT22;1536;51.098;6.414;2023-09-07T06:47:03;21.00;99.90
3053;DHT22;1536;51.098;6.414;2023-09-07T06:49:31;21.00;99.90
3053;DHT22;1536;51.098;6.414;2023-09-07T06:51:58;21.10;99.90
3053;DHT22;1536;51.098;6.414;2023-09-07T06:54:25;21.10;99.90
3053;DHT22;1536;51.098;6.414;2023-09-07T06:56:52;21.20;99.90
3053;DHT22;1536;51.098;6.414;2023-09-07T06:59:19;21.20;99.90
3053;DHT22;1536;51.098;6.414;2023-09-07T07:01:45;21.20;99.90
3053;DHT22;1536;51.098;6.414;2023-09-07T07:04:12;21.30;99.90
3053;DHT22;1536;51.098;6.414;2023-09-07T07:06:40;21.30;99.90
3053;DHT22;1536;51.098;6.414;2023-09-07T07:09:07;21.40;99.90
3053;DHT22;1536;51.098;6.414;2023-09-07T07:11:34;21.40;99.90
3053;DHT22;1536;51.098;6.414;2023-09-07T07:14:01;21.50;99.90
3053;DHT22;1536;51.098;6.414;2023-09-07T07:16:28;21.50;99.90
3053;DHT22;1536;51.098;6.414;2023-09-07T07:18:54;21.60;99.90
3053;DHT22;1536;51.098;6.414;2023-09-07T07:21:21;21.60;99.90
3053;DHT22;1536;51.098;6.414;2023-09-07T07:23:49;21.70;99.90
3053;DHT22;1536;51.098;6.414;2023-09-07T07:26:16;21.70;99.90
3053;DHT22;1536;51.098;6.414;2023-09-07T07:28:43;21.80;99.90
3053;DHT22;1536;51.098;6.414;2023-09-07T07:31:10;21.80;99.90
3053;DHT22;1536;51.098;6.414;2023-09-07T07:33:37;21.90;99.90
3053;DHT22;1536;51.098;6.414;2023-09-07T07:36:04;21.90;99.90
3053;DHT22;1536;51.098;6.414;2023-09-07T07:38:31;22.00;99.90
3053;DHT22;1536;51.098;6.414;2023-09-07T07:40:59;22.00;99.90
3053;DHT22;1536;51.098;6.414;2023-09-07T07:43:26;22.00;99.90
3053;DHT22;1536;51.098;6.414;2023-09-07T07:45:53;22.10;99.90
3053;DHT22;1536;51.098;6.414;2023-09-07T07:48:20;22.20;99.90
3053;DHT22;1536;51.098;6.414;2023-09-07T07:50:47;22.20;99.90
3053;DHT22;1536;51.098;6.414;2023-09-07T07:53:14;22.20;99.90
3053;DHT22;1536;51.098;6.414;2023-09-07T07:55:41;22.30;99.90
3053;DHT22;1536;51.098;6.414;2023-09-07T07:58:10;22.40;99.90
3053;DHT22;1536;51.098;6.414;2023-09-07T08:00:37;22.40;99.90
3053;DHT22;1536;51.098;6.414;2023-09-07T08:03:04;22.40;99.90
3053;DHT22;1536;51.098;6.414;2023-09-07T08:05:33;22.50;99.90
3053;DHT22;1536;51.098;6.414;2023-09-07T08:08:00;22.50;99.90
3053;DHT22;1536;51.098;6.414;2023-09-07T08:10:27;22.60;99.90
3053;DHT22;1536;51.098;6.414;2023-09-07T08:12:54;22.60;99.90
3053;DHT22;1536;51.098;6.414;2023-09-07T08:15:23;22.70;99.90
3053;DHT22;1536;51.098;6.414;2023-09-07T08:17:50;22.70;99.90
3053;DHT22;1536;51.098;6.414;2023-09-07T08:20:17;22.80;99.90
3053;DHT22;1536;51.098;6.414;2023-09-07T08:22:45;22.80;99.90
3053;DHT22;1536;51.098;6.414;2023-09-07T08:25:13;22.90;99.90
3053;DHT22;1536;51.098;6.414;2023-09-07T08:27:40;22.90;99.90
3053;DHT22;1536;51.098;6.414;2023-09-07T08:30:11;23.00;99.90
3053;DHT22;1536;51.098;6.414;2023-09-07T08:32:39;23.00;99.90
3053;DHT22;1536;51.098;6.414;2023-09-07T08:35:08;23.00;99.90
3053;DHT22;1536;51.098;6.414;2023-09-07T08:37:38;23.10;99.90
3053;DHT22;1536;51.098;6.414;2023-09-07T08:40:06;23.20;99.90
3053;DHT22;1536;51.098;6.414;2023-09-07T08:42:35;23.20;99.90
3053;DHT22;1536;51.098;6.414;2023-09-07T08:45:03;23.30;99.90
3053;DHT22;1536;51.098;6.414;2023-09-07T08:47:33;23.30;99.90
3053;DHT22;1536;51.098;6.414;2023-09-07T08:50:02;23.40;99.90
3053;DHT22;1536;51.098;6.414;2023-09-07T08:52:31;23.40;99.90
3053;DHT22;1536;51.098;6.414;2023-09-07T08:54:58;23.50;99.90
3053;DHT22;1536;51.098;6.414;2023-09-07T08:57:27;23.50;99.90
3053;DHT22;1536;51.098;6.414;2023-09-07T08:59:56;23.60;99.90
3053;DHT22;1536;51.098;6.414;2023-09-07T09:02:22;23.70;99.90
3053;DHT22;1536;51.098;6.414;2023-09-07T09:04:50;23.80;99.90
3053;DHT22;1536;51.098;6.414;2023-09-07T09:07:19;23.80;99.90
3053;DHT22;1536;51.098;6.414;2023-09-07T09:09:46;24.00;99.90
3053;DHT22;1536;51.098;6.414;2023-09-07T09:12:13;24.00;99.90
3053;DHT22;1536;51.098;6.414;2023-09-07T09:14:42;24.10;99.90
3053;DHT22;1536;51.098;6.414;2023-09-07T09:17:11;24.20;99.90
3053;DHT22;1536;51.098;6.414;2023-09-07T09:19:39;24.30;99.90
3053;DHT22;1536;51.098;6.414;2023-09-07T09:22:07;24.30;99.90
3053;DHT22;1536;51.098;6.414;2023-09-07T09:24:35;24.40;99.90
3053;DHT22;1536;51.098;6.414;2023-09-07T09:27:02;24.50;99.90
3053;DHT22;1536;51.098;6.414;2023-09-07T09:29:31;24.50;99.90
3053;DHT22;1536;51.098;6.414;2023-09-07T09:32:00;24.60;99.90
3053;DHT22;1536;51.098;6.414;2023-09-07T09:34:32;24.60;99.90
3053;DHT22;1536;51.098;6.414;2023-09-07T09:36:59;24.70;99.90
3053;DHT22;1536;51.098;6.414;2023-09-07T09:39:27;24.80;99.90
3053;DHT22;1536;51.098;6.414;2023-09-07T09:41:55;24.80;99.90
3053;DHT22;1536;51.098;6.414;2023-09-07T09:44:24;24.80;99.90
3053;DHT22;1536;51.098;6.414;2023-09-07T09:46:53;24.90;99.90
3053;DHT22;1536;51.098;6.414;2023-09-07T09:49:21;24.90;99.90
3053;DHT22;1536;51.098;6.414;2023-09-07T09:51:51;25.00;99.90
3053;DHT22;1536;51.098;6.414;2023-09-07T09:54:18;25.00;99.90
3053;DHT22;1536;51.098;6.414;2023-09-07T09:56:45;25.10;99.90
3053;DHT22;1536;51.098;6.414;2023-09-07T09:59:14;25.10;99.90
3053;DHT22;1536;51.098;6.414;2023-09-07T10:01:43;25.20;99.90
3053;DHT22;1536;51.098;6.414;2023-09-07T10:04:12;25.20;99.90
3053;DHT22;1536;51.098;6.414;2023-09-07T10:06:50;25.20;99.90
3053;DHT22;1536;51.098;6.414;2023-09-07T10:09:18;25.30;99.90
3053;DHT22;1536;51.098;6.414;2023-09-07T10:11:51;25.30;99.90
3053;DHT22;1536;51.098;6.414;2023-09-07T10:14:19;25.30;99.90
3053;DHT22;1536;51.098;6.414;2023-09-07T10:16:48;25.40;99.90
3053;DHT22;1536;51.098;6.414;2023-09-07T10:19:17;25.50;99.90
3053;DHT22;1536;51.098;6.414;2023-09-07T10:21:45;25.50;99.90
3053;DHT22;1536;51.098;6.414;2023-09-07T10:24:11;25.60;99.90
3053;DHT22;1536;51.098;6.414;2023-09-07T10:26:38;25.60;99.90
3053;DHT22;1536;51.098;6.414;2023-09-07T10:29:05;25.60;99.90
3053;DHT22;1536;51.098;6.414;2023-09-07T10:31:33;25.60;99.90
3053;DHT22;1536;51.098;6.414;2023-09-07T10:34:09;25.70;99.90
3053;DHT22;1536;51.098;6.414;2023-09-07T10:36:37;25.80;99.90
3053;DHT22;1536;51.098;6.414;2023-09-07T10:39:05;25.80;99.90
3053;DHT22;1536;51.098;6.414;2023-09-07T10:41:40;25.80;99.90
3053;DHT22;1536;51.098;6.414;2023-09-07T10:44:08;25.90;99.90
3053;DHT22;1536;51.098;6.414;2023-09-07T10:46:38;25.90;99.90
3053;DHT22;1536;51.098;6.414;2023-09-07T10:49:08;26.00;99.90
3053;DHT22;1536;51.098;6.414;2023-09-07T10:51:46;26.00;99.90
3053;DHT22;1536;51.098;6.414;2023-09-07T10:54:14;26.00;99.90
3053;DHT22;1536;51.098;6.414;2023-09-07T10:56:43;26.00;99.90
3053;DHT22;1536;51.098;6.414;2023-09-07T10:59:10;26.10;99.90
3053;DHT22;1536;51.098;6.414;2023-09-07T11:01:39;26.10;99.90
3053;DHT22;1536;51.098;6.414;2023-09-07T11:04:05;26.10;99.90
3053;DHT22;1536;51.098;6.414;2023-09-07T11:06:34;26.10;99.90
3053;DHT22;1536;51.098;6.414;2023-09-07T11:09:02;26.10;99.90
3053;DHT22;1536;51.098;6.414;2023-09-07T11:11:31;26.10;99.90
3053;DHT22;1536;51.098;6.414;2023-09-07T11:13:59;26.20;99.90
3053;DHT22;1536;51.098;6.414;2023-09-07T11:16:26;26.20;99.90
3053;DHT22;1536;51.098;6.414;2023-09-07T11:18:54;26.20;99.90
3053;DHT22;1536;51.098;6.414;2023-09-07T11:21:22;26.30;99.90
3053;DHT22;1536;51.098;6.414;2023-09-07T11:23:50;26.30;99.90
3053;DHT22;1536;51.098;6.414;2023-09-07T11:26:17;26.30;99.90
3053;DHT22;1536;51.098;6.414;2023-09-07T11:28:46;26.30;99.90
3053;DHT22;1536;51.098;6.414;2023-09-07T11:31:13;26.30;99.90
3053;DHT22;1536;51.098;6.414;2023-09-07T11:33:41;26.40;99.90
3053;DHT22;1536;51.098;6.414;2023-09-07T11:36:09;26.40;99.90
3053;DHT22;1536;51.098;6.414;2023-09-07T11:38:37;26.50;99.90
3053;DHT22;1536;51.098;6.414;2023-09-07T11:41:04;26.50;99.90
3053;DHT22;1536;51.098;6.414;2023-09-07T11:43:31;26.50;99.90
3053;DHT22;1536;51.098;6.414;2023-09-07T11:45:59;26.40;99.90
3053;DHT22;1536;51.098;6.414;2023-09-07T11:48:28;26.60;99.90
3053;DHT22;1536;51.098;6.414;2023-09-07T11:50:55;26.70;99.90
3053;DHT22;1536;51.098;6.414;2023-09-07T11:55:50;26.70;99.90
3053;DHT22;1536;51.098;6.414;2023-09-07T11:58:17;26.70;99.90
3053;DHT22;1536;51.098;6.414;2023-09-07T12:00:45;26.80;99.90
3053;DHT22;1536;51.098;6.414;2023-09-07T12:03:11;26.80;99.90
3053;DHT22;1536;51.098;6.414;2023-09-07T12:05:38;26.90;99.90
3053;DHT22;1536;51.098;6.414;2023-09-07T12:08:08;26.90;99.90
3053;DHT22;1536;51.098;6.414;2023-09-07T12:10:36;26.90;99.90
3053;DHT22;1536;51.098;6.414;2023-09-07T12:13:03;26.90;99.90
3053;DHT22;1536;51.098;6.414;2023-09-07T12:15:30;27.00;99.90
3053;DHT22;1536;51.098;6.414;2023-09-07T12:17:57;27.00;99.90
3053;DHT22;1536;51.098;6.414;2023-09-07T12:20:24;27.00;99.90
3053;DHT22;1536;51.098;6.414;2023-09-07T12:25:18;27.10;99.90
3053;DHT22;1536;51.098;6.414;2023-09-07T12:27:46;27.20;99.90
3053;DHT22;1536;51.098;6.414;2023-09-07T12:30:13;27.20;99.90
3053;DHT22;1536;51.098;6.414;2023-09-07T12:32:40;27.30;99.90
3053;DHT22;1536;51.098;6.414;2023-09-07T12:35:08;27.30;99.90
3053;DHT22;1536;51.098;6.414;2023-09-07T12:37:35;27.40;99.90
3053;DHT22;1536;51.098;6.414;2023-09-07T12:40:02;27.40;99.90
3053;DHT22;1536;51.098;6.414;2023-09-07T12:42:38;27.40;99.90
3053;DHT22;1536;51.098;6.414;2023-09-07T12:45:07;27.50;99.90
3053;DHT22;1536;51.098;6.414;2023-09-07T12:47:34;27.50;99.90
3053;DHT22;1536;51.098;6.414;2023-09-07T12:50:02;27.60;99.90
3053;DHT22;1536;51.098;6.414;2023-09-07T12:52:30;27.60;99.90
3053;DHT22;1536;51.098;6.414;2023-09-07T12:54:57;27.60;99.90
3053;DHT22;1536;51.098;6.414;2023-09-07T12:57:24;27.70;99.90
3053;DHT22;1536;51.098;6.414;2023-09-07T12:59:50;27.70;99.90
3053;DHT22;1536;51.098;6.414;2023-09-07T13:02:18;27.70;99.90
3053;DHT22;1536;51.098;6.414;2023-09-07T13:04:46;27.80;99.90
3053;DHT22;1536;51.098;6.414;2023-09-07T13:07:13;27.80;99.90
3053;DHT22;1536;51.098;6.414;2023-09-07T13:09:42;27.80;99.90
3053;DHT22;1536;51.098;6.414;2023-09-07T13:12:09;27.90;99.90
3053;DHT22;1536;51.098;6.414;2023-09-07T13:14:36;27.90;99.90
3053;DHT22;1536;51.098;6.414;2023-09-07T13:17:03;28.00;99.90
3053;DHT22;1536;51.098;6.414;2023-09-07T13:19:31;28.00;99.90
3053;DHT22;1536;51.098;6.414;2023-09-07T13:21:58;28.00;99.90
3053;DHT22;1536;51.098;6.414;2023-09-07T13:24:25;28.00;99.90
3053;DHT22;1536;51.098;6.414;2023-09-07T13:26:52;28.10;99.90
3053;DHT22;1536;51.098;6.414;2023-09-07T13:29:19;28.10;99.90
3053;DHT22;1536;51.098;6.414;2023-09-07T13:31:46;28.10;99.90
3053;DHT22;1536;51.098;6.414;2023-09-07T13:34:13;28.10;99.90
3053;DHT22;1536;51.098;6.414;2023-09-07T13:36:41;28.20;99.90
3053;DHT22;1536;51.098;6.414;2023-09-07T13:39:08;28.20;99.90
3053;DHT22;1536;51.098;6.414;2023-09-07T13:41:34;28.20;99.90
3053;DHT22;1536;51.098;6.414;2023-09-07T13:44:01;28.20;99.90
3053;DHT22;1536;51.098;6.414;2023-09-07T13:46:28;28.30;99.90
3053;DHT22;1536;51.098;6.414;2023-09-07T13:48:55;28.30;99.90
3053;DHT22;1536;51.098;6.414;2023-09-07T13:51:21;28.40;99.90
3053;DHT22;1536;51.098;6.414;2023-09-07T13:53:51;28.40;99.90
3053;DHT22;1536;51.098;6.414;2023-09-07T13:56:18;28.40;99.90
3053;DHT22;1536;51.098;6.414;2023-09-07T13:58:45;28.40;99.90
3053;DHT22;1536;51.098;6.414;2023-09-07T14:01:12;28.50;99.90
3053;DHT22;1536;51.098;6.414;2023-09-07T14:03:38;28.50;99.90
3053;DHT22;1536;51.098;6.414;2023-09-07T14:06:05;28.50;99.90
3053;DHT22;1536;51.098;6.414;2023-09-07T14:08:32;28.60;99.90
3053;DHT22;1536;51.098;6.414;2023-09-07T14:11:01;28.60;99.90
3053;DHT22;1536;51.098;6.414;2023-09-07T14:13:28;28.60;99.90
3053;DHT22;1536;51.098;6.414;2023-09-07T14:15:55;28.70;99.90
3053;DHT22;1536;51.098;6.414;2023-09-07T14:18:22;28.70;99.90
3053;DHT22;1536;51.098;6.414;2023-09-07T14:20:49;28.80;99.90
3053;DHT22;1536;51.098;6.414;2023-09-07T14:23:16;28.80;99.90
3053;DHT22;1536;51.098;6.414;2023-09-07T14:25:42;28.80;99.90
3053;DHT22;1536;51.098;6.414;2023-09-07T14:28:12;28.90;99.90
3053;DHT22;1536;51.098;6.414;2023-09-07T14:30:39;28.90;99.90
3053;DHT22;1536;51.098;6.414;2023-09-07T14:33:06;28.90;99.90
3053;DHT22;1536;51.098;6.414;2023-09-07T14:35:32;29.00;99.90
3053;DHT22;1536;51.098;6.414;2023-09-07T14:38:00;29.00;99.90
3053;DHT22;1536;51.098;6.414;2023-09-07T14:40:27;29.00;99.90
3053;DHT22;1536;51.098;6.414;2023-09-07T14:42:53;29.10;99.90
3053;DHT22;1536;51.098;6.414;2023-09-07T14:45:24;29.10;99.90
3053;DHT22;1536;51.098;6.414;2023-09-07T14:47:51;29.20;99.90
3053;DHT22;1536;51.098;6.414;2023-09-07T14:50:18;29.30;99.90
3053;DHT22;1536;51.098;6.414;2023-09-07T14:52:46;29.30;99.90
3053;DHT22;1536;51.098;6.414;2023-09-07T14:55:13;29.30;99.90
3053;DHT22;1536;51.098;6.414;2023-09-07T14:57:40;29.40;99.90
3053;DHT22;1536;51.098;6.414;2023-09-07T15:00:09;29.40;99.90
3053;DHT22;1536;51.098;6.414;2023-09-07T15:02:38;29.50;99.90
3053;DHT22;1536;51.098;6.414;2023-09-07T15:05:05;29.50;99.90
3053;DHT22;1536;51.098;6.414;2023-09-07T15:07:32;29.50;99.90
3053;DHT22;1536;51.098;6.414;2023-09-07T15:09:59;29.60;99.90
3053;DHT22;1536;51.098;6.414;2023-09-07T15:12:26;29.60;99.90
3053;DHT22;1536;51.098;6.414;2023-09-07T15:14:52;29.60;99.90
3053;DHT22;1536;51.098;6.414;2023-09-07T15:17:19;29.70;99.90
3053;DHT22;1536;51.098;6.414;2023-09-07T15:19:47;29.70;99.90
3053;DHT22;1536;51.098;6.414;2023-09-07T15:22:15;29.70;99.90
3053;DHT22;1536;51.098;6.414;2023-09-07T15:24:41;29.80;99.90
3053;DHT22;1536;51.098;6.414;2023-09-07T15:27:08;29.70;99.10
3053;DHT22;1536;51.098;6.414;2023-09-07T15:29:36;29.70;99.00
3053;DHT22;1536;51.098;6.414;2023-09-07T15:32:03;29.70;99.30
3053;DHT22;1536;51.098;6.414;2023-09-07T15:34:31;29.70;99.40
3053;DHT22;1536;51.098;6.414;2023-09-07T15:37:00;29.70;99.30
3053;DHT22;1536;51.098;6.414;2023-09-07T15:39:27;29.70;99.20
3053;DHT22;1536;51.098;6.414;2023-09-07T15:41:54;29.70;99.20
3053;DHT22;1536;51.098;6.414;2023-09-07T15:44:21;29.70;99.50
3053;DHT22;1536;51.098;6.414;2023-09-07T15:46:49;29.70;99.40
3053;DHT22;1536;51.098;6.414;2023-09-07T15:49:16;29.60;99.30
3053;DHT22;1536;51.098;6.414;2023-09-07T15:51:44;29.60;99.30
3053;DHT22;1536;51.098;6.414;2023-09-07T15:54:13;29.50;99.20
3053;DHT22;1536;51.098;6.414;2023-09-07T15:56:40;29.50;99.20
3053;DHT22;1536;51.098;6.414;2023-09-07T15:59:07;29.40;99.50
3053;DHT22;1536;51.098;6.414;2023-09-07T16:01:48;29.30;99.70
3053;DHT22;1536;51.098;6.414;2023-09-07T16:04:16;29.20;99.80
3053;DHT22;1536;51.098;6.414;2023-09-07T16:06:42;29.10;99.80
3053;DHT22;1536;51.098;6.414;2023-09-07T16:09:09;29.00;99.70